createdAt,value
2022-10-11T00:01:07.519Z,11.60
2022-10-11T00:03:37.122Z,11.60
2022-10-11T00:06:06.290Z,11.60
2022-10-11T00:08:35.700Z,11.60
2022-10-11T00:11:08.212Z,11.60
2022-10-11T00:13:36.938Z,11.60
2022-10-11T00:16:09.545Z,11.60
2022-10-11T00:18:41.695Z,11.50
2022-10-11T00:21:13.054Z,11.60
2022-10-11T00:23:41.968Z,11.60
2022-10-11T00:26:11.654Z,11.60
2022-10-11T00:28:40.416Z,11.60
2022-10-11T00:31:09.604Z,11.60
2022-10-11T00:33:39.302Z,11.60
2022-10-11T00:36:09.050Z,11.60
2022-10-11T00:38:37.756Z,11.60
2022-10-11T00:41:06.260Z,11.60
2022-10-11T00:43:35.697Z,11.50
2022-10-11T00:46:26.865Z,11.50
2022-10-11T00:49:00.907Z,11.50
2022-10-11T00:51:39.805Z,11.50
2022-10-11T00:54:12.437Z,11.50
2022-10-11T00:56:42.517Z,11.50
2022-10-11T00:59:15.567Z,11.40
2022-10-11T01:01:43.944Z,11.40
2022-10-11T01:04:14.031Z,11.40
2022-10-11T01:06:42.811Z,11.30
2022-10-11T02:48:07.574Z,9.30
2022-10-11T02:50:35.973Z,9.20
2022-10-11T02:53:05.712Z,9.10
2022-10-11T02:55:34.053Z,9.10
2022-10-11T02:58:02.788Z,9.10
2022-10-11T03:00:31.769Z,9.00
2022-10-11T03:02:59.999Z,9.00
2022-10-11T03:05:28.354Z,8.90
2022-10-11T03:07:56.565Z,8.90
2022-10-11T03:10:26.169Z,8.90
2022-10-11T03:12:54.525Z,8.80
2022-10-11T03:15:22.714Z,8.80
2022-10-11T03:17:50.942Z,8.80
2022-10-11T03:20:19.576Z,8.80
2022-10-11T03:22:47.730Z,8.80
2022-10-11T03:25:15.961Z,8.80
2022-10-11T03:27:45.648Z,8.80
2022-10-11T03:30:18.352Z,8.70
2022-10-11T03:32:46.979Z,8.70
2022-10-11T03:35:15.456Z,8.60
2022-10-11T03:37:43.717Z,8.50
2022-10-11T03:44:19.002Z,8.50
2022-10-11T03:46:56.235Z,8.50
2022-10-11T03:49:24.980Z,8.30
2022-10-11T03:51:53.247Z,8.30
2022-10-11T03:54:21.493Z,8.20
2022-10-11T03:56:51.743Z,8.10
2022-10-11T03:59:20.022Z,8.10
2022-10-11T04:01:49.685Z,8.00
2022-10-11T04:04:42.268Z,8.00
2022-10-11T04:10:14.334Z,7.90
2022-10-11T04:12:42.720Z,7.90
2022-10-11T04:15:13.558Z,7.90
2022-10-11T04:17:43.273Z,7.80
2022-10-11T04:20:12.105Z,7.80
2022-10-11T04:22:40.279Z,7.80
2022-10-11T04:25:10.385Z,7.70
2022-10-11T04:27:38.619Z,7.70
2022-10-11T04:30:08.117Z,7.70
2022-10-11T04:32:36.426Z,7.60
2022-10-11T04:35:06.756Z,7.50
2022-10-11T04:37:35.382Z,7.60
2022-10-11T04:40:04.782Z,7.60
2022-10-11T04:42:35.073Z,7.60
2022-10-11T04:45:04.002Z,7.50
2022-10-11T04:47:32.301Z,7.40
2022-10-11T04:50:00.521Z,7.40
2022-10-11T04:52:30.177Z,7.40
2022-10-11T04:54:58.474Z,7.30
2022-10-11T05:01:04.702Z,7.30
2022-10-11T05:03:32.899Z,7.20
2022-10-11T05:06:05.432Z,7.20
2022-10-11T05:08:45.899Z,7.10
2022-10-11T05:11:23.030Z,7.10
2022-10-11T05:13:57.239Z,7.20
2022-10-11T05:16:33.865Z,7.10
2022-10-11T05:19:02.927Z,7.00
2022-10-11T05:21:36.945Z,7.00
2022-10-11T05:24:17.548Z,7.00
2022-10-11T05:26:49.325Z,7.00
2022-10-11T05:29:25.455Z,6.90
2022-10-11T05:31:59.569Z,6.90
2022-10-11T05:37:42.707Z,6.90
2022-10-11T05:41:00.078Z,6.90
2022-10-11T05:43:41.898Z,6.90
2022-10-11T05:46:10.652Z,6.90
2022-10-11T05:48:42.428Z,6.90
2022-10-11T05:51:14.558Z,6.90
2022-10-11T05:53:47.620Z,6.90
2022-10-11T05:56:21.756Z,6.90
2022-10-11T05:58:51.646Z,6.80
2022-10-11T06:01:25.146Z,6.80
2022-10-11T06:03:53.703Z,6.70
2022-10-11T06:06:22.020Z,6.60
2022-10-11T06:09:07.960Z,6.70
2022-10-11T06:11:37.556Z,6.60
2022-10-11T06:14:07.309Z,6.50
2022-10-11T06:16:36.365Z,6.50
2022-10-11T06:19:05.449Z,6.60
2022-10-11T06:21:33.689Z,6.60
2022-10-11T06:24:02.671Z,6.60
2022-10-11T06:26:31.159Z,6.80
2022-10-11T06:28:59.807Z,6.80
2022-10-11T06:31:29.548Z,6.90
2022-10-11T06:34:00.124Z,6.80
2022-10-11T06:36:28.698Z,6.70
2022-10-11T06:39:14.010Z,6.70
2022-10-11T06:41:42.208Z,6.70
2022-10-11T06:44:14.165Z,6.90
2022-10-11T06:46:44.496Z,6.90
2022-10-11T06:49:12.900Z,6.90
2022-10-11T06:51:41.191Z,7.00
2022-10-11T06:54:14.779Z,6.90
2022-10-11T06:56:46.952Z,7.00
2022-10-11T06:59:16.391Z,7.20
2022-10-11T07:01:46.030Z,7.60
2022-10-11T07:04:14.333Z,8.40
2022-10-11T07:06:47.180Z,11.90
2022-10-11T07:09:18.085Z,13.80
2022-10-11T07:11:51.045Z,14.40
2022-10-11T07:14:28.959Z,15.20
2022-10-11T07:17:04.173Z,16.00
2022-10-11T07:19:41.431Z,16.70
2022-10-11T07:23:00.024Z,17.40
2022-10-11T07:25:34.150Z,17.30
2022-10-11T07:28:09.332Z,16.30
2022-10-11T07:30:42.948Z,17.30
2022-10-11T07:33:14.171Z,16.80
2022-10-11T07:35:48.192Z,17.60
2022-10-11T07:38:17.605Z,17.10
2022-10-11T07:40:48.469Z,16.10
2022-10-11T07:43:16.654Z,16.60
2022-10-11T07:45:49.908Z,17.80
2022-10-11T07:48:38.010Z,18.50
2022-10-11T07:51:12.768Z,18.70
2022-10-11T07:56:28.741Z,16.80
2022-10-11T07:59:10.444Z,15.80
2022-10-11T08:01:40.580Z,15.00
2022-10-11T08:04:10.983Z,16.20
2022-10-11T08:06:39.278Z,16.20
2022-10-11T08:09:07.630Z,16.10
2022-10-11T08:11:38.261Z,14.80
2022-10-11T08:14:12.906Z,15.40
2022-10-11T08:19:52.715Z,18.10
2022-10-11T08:22:21.053Z,16.00
2022-10-11T08:24:50.942Z,15.60
2022-10-11T08:27:21.355Z,14.90
2022-10-11T08:29:49.732Z,13.70
2022-10-11T08:32:21.637Z,16.50
2022-10-11T08:35:25.318Z,14.90
2022-10-11T08:37:55.648Z,15.10
2022-10-11T08:40:26.188Z,15.20
2022-10-11T08:43:01.830Z,17.00
2022-10-11T08:45:58.113Z,19.00
2022-10-11T08:48:37.971Z,14.90
2022-10-11T08:51:20.006Z,13.00
2022-10-11T08:54:09.374Z,12.50
2022-10-11T09:00:54.537Z,12.00
2022-10-11T09:03:41.978Z,11.60
2022-10-11T09:09:41.395Z,11.80
2022-10-11T09:12:17.612Z,11.40
2022-10-11T09:15:10.711Z,11.30
2022-10-11T09:18:15.589Z,11.30
2022-10-11T09:20:58.208Z,11.10
2022-10-11T09:23:44.504Z,11.30
2022-10-11T09:26:20.422Z,11.30
2022-10-11T09:29:18.780Z,11.10
2022-10-11T09:31:50.901Z,11.40
2022-10-11T09:34:21.745Z,11.80
2022-10-11T09:37:03.391Z,11.80
2022-10-11T09:39:56.860Z,11.70
2022-10-11T09:49:51.789Z,11.90
2022-10-11T09:55:38.346Z,12.00
2022-10-11T09:58:29.022Z,12.00
2022-10-11T10:01:07.972Z,12.10
2022-10-11T10:04:04.627Z,12.20
2022-10-11T10:09:31.938Z,12.30
2022-10-11T10:12:13.576Z,12.30
2022-10-11T10:14:42.744Z,12.50
2022-10-11T10:17:18.674Z,12.60
2022-10-11T10:19:51.919Z,12.60
2022-10-11T10:22:29.580Z,12.70
2022-10-11T10:28:05.458Z,12.60
2022-10-11T10:30:41.428Z,12.90
2022-10-11T10:33:53.371Z,12.90
2022-10-11T10:36:33.242Z,12.90
2022-10-11T10:39:11.070Z,12.90
2022-10-11T10:41:46.075Z,13.00
2022-10-11T10:45:09.710Z,13.00
2022-10-11T10:48:13.740Z,13.20
2022-10-11T10:50:51.799Z,13.20
2022-10-11T10:53:28.642Z,13.30
2022-10-11T10:56:12.597Z,13.30
2022-10-11T11:02:41.848Z,13.30
2022-10-11T11:05:50.470Z,13.20
2022-10-11T11:08:42.200Z,13.60
2022-10-11T11:14:55.334Z,13.60
2022-10-11T11:17:43.098Z,13.60
2022-10-11T11:20:52.327Z,13.80
2022-10-11T11:23:36.666Z,13.80
2022-10-11T11:32:58.117Z,13.80
2022-10-11T11:35:41.073Z,13.90
2022-10-11T11:42:25.948Z,14.20
2022-10-11T11:44:55.493Z,14.00
2022-10-11T11:47:46.125Z,14.10
2022-10-11T11:54:35.195Z,14.20
2022-10-11T11:57:49.881Z,14.30
2022-10-11T12:00:35.744Z,14.60
2022-10-11T12:03:18.059Z,14.60
2022-10-11T12:06:19.264Z,14.50
2022-10-11T12:09:01.733Z,14.30
2022-10-11T12:11:45.128Z,14.80
2022-10-11T12:14:27.700Z,14.30
2022-10-11T12:17:24.452Z,14.20
2022-10-11T12:25:39.742Z,14.40
2022-10-11T12:28:48.814Z,14.50
2022-10-11T12:42:34.509Z,14.50
2022-10-11T12:45:35.086Z,14.80
2022-10-11T12:48:31.898Z,14.50
2022-10-11T12:51:50.870Z,14.80
2022-10-11T12:54:59.407Z,15.10
2022-10-11T12:58:18.156Z,14.60
2022-10-11T13:01:22.486Z,14.70
2022-10-11T13:10:49.280Z,14.80
2022-10-11T13:13:23.659Z,14.50
2022-10-11T13:15:54.437Z,14.60
2022-10-11T13:18:27.231Z,14.70
2022-10-11T13:20:55.513Z,14.80
2022-10-11T13:23:26.502Z,14.80
2022-10-11T13:25:56.037Z,14.80
2022-10-11T13:35:21.012Z,14.80
2022-10-11T13:38:01.828Z,14.60
2022-10-11T13:40:37.540Z,14.90
2022-10-11T13:43:08.992Z,14.60
2022-10-11T13:45:44.927Z,14.50
2022-10-11T13:48:20.696Z,14.60
2022-10-11T13:58:18.708Z,14.80
2022-10-11T14:01:18.356Z,15.00
2022-10-11T14:06:45.281Z,14.80
2022-10-11T14:09:33.927Z,14.30
2022-10-11T14:12:49.450Z,14.40
2022-10-11T14:15:45.011Z,14.30
2022-10-11T14:18:53.568Z,14.40
2022-10-11T14:21:36.042Z,14.50
2022-10-11T14:24:10.699Z,14.60
2022-10-11T14:26:41.639Z,14.60
2022-10-11T14:31:56.495Z,14.40
2022-10-11T14:34:32.688Z,14.40
2022-10-11T14:37:08.720Z,14.30
2022-10-11T14:39:53.514Z,14.30
2022-10-11T14:42:40.423Z,14.20
2022-10-11T14:45:37.275Z,14.20
2022-10-11T14:48:12.320Z,14.30
2022-10-11T14:50:48.800Z,14.20
2022-10-11T14:53:27.498Z,14.20
2022-10-11T14:56:16.617Z,14.20
2022-10-11T14:58:57.949Z,14.00
2022-10-11T15:01:28.991Z,14.10
2022-10-11T15:04:01.160Z,14.30
2022-10-11T15:06:58.959Z,14.20
2022-10-11T15:10:28.573Z,14.20
2022-10-11T15:13:01.795Z,14.10
2022-10-11T15:15:33.022Z,14.00
2022-10-11T15:18:10.353Z,14.10
2022-10-11T15:21:19.902Z,14.00
2022-10-11T15:23:55.023Z,13.90
2022-10-11T15:26:33.664Z,13.90
2022-10-11T15:29:02.910Z,13.70
2022-10-11T15:31:32.383Z,13.80
2022-10-11T15:34:02.886Z,13.90
2022-10-11T15:36:36.367Z,13.80
2022-10-11T15:39:50.497Z,13.80
2022-10-11T15:45:26.973Z,13.60
2022-10-11T15:51:40.834Z,13.50
2022-10-11T16:03:57.964Z,13.20
2022-10-11T16:09:57.970Z,13.20
2022-10-11T16:21:53.866Z,12.70
2022-10-11T16:24:31.440Z,12.60
2022-10-11T16:33:43.791Z,12.40
2022-10-11T16:36:32.693Z,12.30
2022-10-11T16:39:08.845Z,12.20
2022-10-11T16:41:38.940Z,12.10
2022-10-11T16:44:17.818Z,12.00
2022-10-11T16:46:50.489Z,11.90
2022-10-11T16:49:25.326Z,11.90
2022-10-11T16:52:00.461Z,11.80
2022-10-11T17:00:49.384Z,11.60
2022-10-11T17:03:23.661Z,11.40
2022-10-11T17:05:56.916Z,11.40
2022-10-11T17:08:44.150Z,11.30
2022-10-11T17:11:14.198Z,11.30
2022-10-11T17:13:53.861Z,11.20
2022-10-11T17:16:57.993Z,11.10
2022-10-11T17:22:27.794Z,11.00
2022-10-11T17:24:58.514Z,10.80
2022-10-11T17:27:29.632Z,10.80
2022-10-11T17:30:00.091Z,10.70
2022-10-11T17:32:36.355Z,10.70
2022-10-11T17:35:10.243Z,10.60
2022-10-11T17:37:53.226Z,10.60
2022-10-11T17:40:23.281Z,10.60
2022-10-11T17:42:56.614Z,10.60
2022-10-11T17:45:32.356Z,10.60
2022-10-11T17:54:34.405Z,10.50
2022-10-11T17:57:06.015Z,10.50
2022-10-11T17:59:38.908Z,10.50
2022-10-11T18:02:07.667Z,10.40
2022-10-11T18:04:36.150Z,10.40
2022-10-11T18:07:04.386Z,10.30
2022-10-11T18:09:35.005Z,10.30
2022-10-11T18:12:06.870Z,10.20
2022-10-11T18:14:44.427Z,10.20
2022-10-11T18:17:13.860Z,10.10
2022-10-11T18:20:00.098Z,10.10
2022-10-11T18:22:40.636Z,9.90
2022-10-11T18:25:10.752Z,9.80
2022-10-11T18:27:38.983Z,9.70
2022-10-11T18:30:10.132Z,9.70
2022-10-11T18:33:16.312Z,9.60
2022-10-11T18:36:00.602Z,9.60
2022-10-11T18:38:33.946Z,9.40
2022-10-11T18:41:12.118Z,9.30
2022-10-11T18:43:41.660Z,9.20
2022-10-11T18:46:16.459Z,9.10
2022-10-11T18:49:07.679Z,9.00
2022-10-11T18:51:46.951Z,9.00
2022-10-11T18:54:21.275Z,9.00
2022-10-11T18:56:51.704Z,8.90
2022-10-11T18:59:23.086Z,8.90
2022-10-11T19:01:57.699Z,8.90
2022-10-11T19:04:34.907Z,9.00
2022-10-11T19:07:05.293Z,9.10
2022-10-11T19:09:41.133Z,9.00
2022-10-11T19:12:20.207Z,8.80
2022-10-11T19:14:50.091Z,8.60
2022-10-11T19:17:24.752Z,8.40
2022-10-11T19:20:06.546Z,8.40
2022-10-11T19:22:35.099Z,8.40
2022-10-11T19:25:13.702Z,8.40
2022-10-11T19:30:23.084Z,8.20
2022-10-11T19:32:57.069Z,8.20
2022-10-11T19:35:26.862Z,8.10
2022-10-11T19:38:04.951Z,8.10
2022-10-11T19:40:34.070Z,8.10
2022-10-11T19:43:03.978Z,8.10
2022-10-11T19:45:36.288Z,8.10
2022-10-11T19:48:05.263Z,8.10
2022-10-11T19:50:37.572Z,8.00
2022-10-11T19:53:07.728Z,7.90
2022-10-11T19:55:41.859Z,7.90
2022-10-11T19:58:16.305Z,7.80
2022-10-11T20:00:46.730Z,7.80
2022-10-11T20:03:15.606Z,7.80
2022-10-11T20:05:46.331Z,7.80
2022-10-11T20:08:16.825Z,7.80
2022-10-11T20:10:46.824Z,7.80
2022-10-11T20:13:22.354Z,7.60
2022-10-11T20:15:52.909Z,7.50
2022-10-11T20:21:56.418Z,7.40
2022-10-11T20:24:34.818Z,7.30
2022-10-11T20:27:07.730Z,7.30
2022-10-11T20:29:39.721Z,7.30
2022-10-11T20:32:08.069Z,7.30
2022-10-11T20:34:39.593Z,7.20
2022-10-11T20:37:10.985Z,7.20
2022-10-11T20:39:39.500Z,7.10
2022-10-11T20:42:09.004Z,7.00
2022-10-11T20:44:39.198Z,6.90
2022-10-11T20:47:07.632Z,6.90
2022-10-11T20:49:36.061Z,6.70
2022-10-11T20:52:04.440Z,6.80
2022-10-11T20:54:34.751Z,6.80
2022-10-11T20:57:03.158Z,6.80
2022-10-11T20:59:31.547Z,6.70
2022-10-11T21:02:01.671Z,6.70
2022-10-11T21:04:30.244Z,6.70
2022-10-11T21:06:58.559Z,6.60
2022-10-11T21:09:26.853Z,6.60
2022-10-11T21:11:55.146Z,6.50
2022-10-11T21:14:23.639Z,6.40
2022-10-11T21:17:03.273Z,6.30
2022-10-11T21:19:40.270Z,6.30
2022-10-11T21:22:10.074Z,6.40
2022-10-11T21:24:38.907Z,6.40
2022-10-11T21:27:10.153Z,6.40
2022-10-11T21:29:38.386Z,6.30
2022-10-11T21:32:09.764Z,6.30
2022-10-11T21:34:41.770Z,6.20
2022-10-11T21:37:10.187Z,6.20
2022-10-11T21:39:39.665Z,6.20
2022-10-11T21:42:08.066Z,6.20
2022-10-11T21:44:37.016Z,6.30
2022-10-11T21:47:07.626Z,6.20
2022-10-11T21:49:36.601Z,6.10
2022-10-11T21:52:09.667Z,6.10
2022-10-11T21:54:45.605Z,6.10
2022-10-11T21:57:32.685Z,6.10
2022-10-11T22:00:04.653Z,6.10
2022-10-11T22:02:35.619Z,6.00
2022-10-11T22:05:16.335Z,5.90
2022-10-11T22:07:52.432Z,5.90
2022-10-11T22:10:24.607Z,5.90
2022-10-11T22:12:58.767Z,5.80
2022-10-11T22:15:30.627Z,5.70
2022-10-11T22:17:59.409Z,5.70
2022-10-11T22:20:32.409Z,5.70
2022-10-11T22:23:03.915Z,5.60
2022-10-11T22:25:32.271Z,5.60
2022-10-11T22:28:00.629Z,5.60
2022-10-11T22:30:30.746Z,5.60
2022-10-11T22:33:03.775Z,5.70
2022-10-11T22:35:33.691Z,5.50
2022-10-11T22:38:07.398Z,5.60
2022-10-11T22:40:35.913Z,5.60
2022-10-11T22:49:43.572Z,5.60
2022-10-11T22:52:11.928Z,5.50
2022-10-11T22:54:41.611Z,5.50
2022-10-11T22:57:10.015Z,5.30
2022-10-11T22:59:38.548Z,5.30
2022-10-11T23:02:08.525Z,5.30
2022-10-11T23:04:36.845Z,5.30
2022-10-11T23:07:12.692Z,5.20
2022-10-11T23:09:42.304Z,5.20
2022-10-11T23:12:10.578Z,5.20
2022-10-11T23:14:39.195Z,5.20
2022-10-11T23:17:07.375Z,5.10
2022-10-11T23:19:36.932Z,5.00
2022-10-11T23:22:05.214Z,4.90
2022-10-11T23:24:33.459Z,4.90
2022-10-11T23:27:03.414Z,4.90
2022-10-11T23:29:31.978Z,4.80
2022-10-11T23:32:01.924Z,4.80
2022-10-11T23:34:30.736Z,4.80
2022-10-11T23:37:02.918Z,4.80
